Time;durP1;ratioP1;P1;durP2;ratioP2;P2;SDS_P1;SDS_P2;PMS_P1;PMS_P2;Temp;Humidity;BMP_temperature;BMP_pressure;BME280_temperature;BME280_humidity;BME280_pressure;Samples;Min_cycle;Max_cycle;Signal;HPM_P1;HPM_P2
2022/05/09 00:00:27;;;;;;;14.20;13.33;;;8.70;99.90;;;;;;5029832;28;20468;-67
2022/05/09 00:02:55;;;;;;;16.07;14.60;;;8.70;99.90;;;;;;5030175;28;20464;-67
2022/05/09 00:05:25;;;;;;;15.33;14.23;;;8.60;99.90;;;;;;5023030;28;20831;-66
2022/05/09 00:07:53;;;;;;;15.27;14.27;;;8.70;99.90;;;;;;5023393;28;20471;-67
2022/05/09 00:10:22;;;;;;;14.97;13.93;;;8.70;99.90;;;;;;5029769;28;20474;-66
2022/05/09 00:12:49;;;;;;;16.53;15.33;;;8.70;99.90;;;;;;5026136;28;20478;-67
2022/05/09 00:15:18;;;;;;;15.63;14.50;;;8.60;99.90;;;;;;5029562;28;20471;-66
2022/05/09 00:17:45;;;;;;;15.50;14.50;;;8.60;99.90;;;;;;5031131;28;20813;-66
2022/05/09 00:20:14;;;;;;;14.73;13.83;;;8.60;99.90;;;;;;5030666;28;20479;-66
2022/05/09 00:22:47;;;;;;;15.67;14.30;;;8.60;99.90;;;;;;5023667;28;20483;-67
2022/05/09 00:25:15;;;;;;;15.20;13.80;;;8.60;99.90;;;;;;5023983;28;20496;-66
2022/05/09 00:27:41;;;;;;;15.47;14.47;;;8.60;99.90;;;;;;5026148;28;20471;-67
2022/05/09 00:30:09;;;;;;;15.73;14.40;;;8.50;99.90;;;;;;5029227;28;20454;-66
2022/05/09 00:32:36;;;;;;;14.73;13.90;;;8.50;99.90;;;;;;5032942;28;20459;-67
2022/05/09 00:35:04;;;;;;;16.67;15.10;;;8.50;99.90;;;;;;5031624;28;20483;-68
2022/05/09 00:37:30;;;;;;;15.77;14.97;;;8.40;99.90;;;;;;5028318;28;20455;-67
2022/05/09 00:39:59;;;;;;;15.47;14.57;;;8.40;99.90;;;;;;5032178;28;20962;-67
2022/05/09 00:42:26;;;;;;;16.60;15.30;;;8.40;99.90;;;;;;5033301;28;20495;-67
2022/05/09 00:44:52;;;;;;;16.20;14.90;;;8.40;99.90;;;;;;5027296;28;20508;-66
2022/05/09 00:47:20;;;;;;;18.00;16.13;;;8.40;99.90;;;;;;5027310;28;21156;-66
2022/05/09 00:49:52;;;;;;;16.90;15.73;;;8.40;99.90;;;;;;5032036;28;20455;-67
2022/05/09 00:52:23;;;;;;;16.20;14.73;;;8.40;99.90;;;;;;5027567;28;20562;-66
2022/05/09 00:54:56;;;;;;;15.70;14.40;;;8.50;99.90;;;;;;5030165;28;20558;-66
2022/05/09 00:57:29;;;;;;;15.83;14.60;;;8.50;99.90;;;;;;5028711;28;20900;-67
2022/05/09 00:59:59;;;;;;;15.40;14.30;;;8.40;99.90;;;;;;5027851;28;21148;-66
2022/05/09 01:02:28;;;;;;;16.10;14.80;;;8.40;99.90;;;;;;5039008;28;20458;-66
2022/05/09 01:04:57;;;;;;;15.67;14.07;;;8.40;99.90;;;;;;5033566;28;20501;-67
2022/05/09 01:07:25;;;;;;;17.17;15.90;;;8.40;99.90;;;;;;5028382;28;20700;-66
2022/05/09 01:09:52;;;;;;;14.80;13.90;;;8.40;99.90;;;;;;5028989;28;20504;-66
2022/05/09 01:12:22;;;;;;;15.23;14.07;;;8.50;99.90;;;;;;5028104;28;20858;-66
2022/05/09 01:14:50;;;;;;;16.10;14.80;;;8.40;99.90;;;;;;5031386;28;20999;-66
2022/05/09 01:17:20;;;;;;;18.40;14.57;;;8.40;99.90;;;;;;5031739;28;20462;-66
2022/05/09 01:19:47;;;;;;;15.77;14.47;;;8.40;99.90;;;;;;5030809;28;20810;-66
2022/05/09 01:22:22;;;;;;;16.40;15.13;;;8.40;99.90;;;;;;5028816;28;20552;-66
2022/05/09 01:24:50;;;;;;;16.30;14.70;;;8.30;99.90;;;;;;5029432;28;20471;-67
2022/05/09 01:27:18;;;;;;;16.17;15.07;;;8.30;99.90;;;;;;5028602;28;20459;-66
2022/05/09 01:29:51;;;;;;;17.40;14.70;;;8.30;99.90;;;;;;5028942;28;21021;-67
2022/05/09 01:32:29;;;;;;;15.40;14.37;;;8.40;99.90;;;;;;5031785;28;20456;-66
2022/05/09 01:35:01;;;;;;;15.10;13.70;;;8.40;99.90;;;;;;5030607;28;20963;-66
2022/05/09 01:37:32;;;;;;;16.17;14.57;;;8.40;99.90;;;;;;5027129;28;20457;-67
2022/05/09 01:39:59;;;;;;;16.77;15.27;;;8.50;99.90;;;;;;5031096;28;20476;-66
2022/05/09 01:42:26;;;;;;;19.30;13.97;;;8.50;99.90;;;;;;5033529;28;20500;-66
2022/05/09 01:44:53;;;;;;;16.03;14.77;;;8.60;99.90;;;;;;5031681;28;20464;-66
2022/05/09 01:50:05;;;;;;;15.87;14.27;;;8.50;99.90;;;;;;5026407;28;20467;-66
2022/05/09 01:52:33;;;;;;;18.03;15.03;;;8.50;99.90;;;;;;5028276;28;21002;-66
2022/05/09 01:54:59;;;;;;;16.17;14.47;;;8.50;99.90;;;;;;5028136;28;20473;-67
2022/05/09 01:57:26;;;;;;;16.30;14.80;;;8.50;99.90;;;;;;5034199;28;20492;-69
2022/05/09 01:59:53;;;;;;;15.20;14.10;;;8.50;99.90;;;;;;5026631;28;20484;-69
2022/05/09 02:02:23;;;;;;;16.03;14.60;;;8.50;99.90;;;;;;5034459;28;20456;-69
2022/05/09 02:04:50;;;;;;;18.00;16.17;;;8.50;99.90;;;;;;5026175;28;20591;-68
2022/05/09 02:07:19;;;;;;;17.00;14.60;;;8.50;99.90;;;;;;5027708;28;20492;-69
2022/05/09 02:09:49;;;;;;;17.47;15.60;;;8.50;99.90;;;;;;5027458;28;20555;-68
2022/05/09 02:12:17;;;;;;;17.10;15.50;;;8.50;99.90;;;;;;5025570;28;20469;-68
2022/05/09 02:14:45;;;;;;;16.40;14.73;;;8.50;99.90;;;;;;5027095;28;20479;-69
2022/05/09 02:17:13;;;;;;;15.77;14.67;;;8.50;99.90;;;;;;5027169;28;20471;-69
2022/05/09 02:19:41;;;;;;;16.97;15.53;;;8.40;99.90;;;;;;5027948;28;20822;-69
2022/05/09 02:22:10;;;;;;;15.97;14.77;;;8.40;99.90;;;;;;5027743;28;20514;-68
2022/05/09 02:24:38;;;;;;;16.73;15.43;;;8.40;99.90;;;;;;5031484;28;20574;-68
2022/05/09 02:27:08;;;;;;;16.57;15.07;;;8.40;99.90;;;;;;5025395;28;20590;-70
2022/05/09 02:29:37;;;;;;;16.37;15.27;;;8.30;99.90;;;;;;5027501;28;20470;-69
2022/05/09 02:32:06;;;;;;;15.80;14.70;;;8.20;99.90;;;;;;5028123;28;20555;-67
2022/05/09 02:34:33;;;;;;;16.90;15.60;;;8.20;99.90;;;;;;5025953;28;20475;-66
2022/05/09 02:37:01;;;;;;;15.53;14.03;;;8.20;99.90;;;;;;5032074;28;20467;-67
2022/05/09 02:39:28;;;;;;;15.97;14.87;;;8.30;99.90;;;;;;5032173;28;20472;-66
2022/05/09 02:41:55;;;;;;;16.27;14.97;;;8.20;99.90;;;;;;5027160;28;21037;-67
2022/05/09 02:44:23;;;;;;;18.60;17.00;;;8.10;99.90;;;;;;5030040;28;20462;-66
2022/05/09 02:46:50;;;;;;;18.47;16.40;;;8.10;99.90;;;;;;5024961;28;20483;-67
2022/05/09 02:49:19;;;;;;;18.13;16.40;;;8.10;99.90;;;;;;5029793;28;20475;-67
2022/05/09 02:51:46;;;;;;;16.37;15.17;;;8.10;99.90;;;;;;5030262;28;20479;-67
2022/05/09 02:54:13;;;;;;;17.53;15.83;;;8.10;99.90;;;;;;5031456;28;21022;-67
2022/05/09 02:56:40;;;;;;;15.90;14.70;;;8.00;99.90;;;;;;5029392;28;20468;-68
2022/05/09 02:59:07;;;;;;;16.17;15.17;;;7.90;99.90;;;;;;5032541;28;20486;-67
2022/05/09 03:01:35;;;;;;;16.23;15.17;;;7.80;99.90;;;;;;5032012;28;20472;-67
2022/05/09 03:06:46;;;;;;;17.27;16.07;;;7.40;99.90;;;;;;5029045;28;20929;-66
2022/05/09 03:09:13;;;;;;;17.67;16.47;;;7.40;99.90;;;;;;5026331;28;20743;-67
2022/05/09 03:11:40;;;;;;;16.70;15.60;;;7.30;99.90;;;;;;5031372;28;20471;-67
2022/05/09 03:14:07;;;;;;;17.20;15.60;;;7.30;99.90;;;;;;5027168;28;20980;-67
2022/05/09 03:16:36;;;;;;;17.60;16.37;;;7.30;99.90;;;;;;5027818;28;20465;-67
2022/05/09 03:19:03;;;;;;;17.30;16.20;;;7.20;99.90;;;;;;5027825;28;20453;-67
2022/05/09 03:21:30;;;;;;;18.00;16.70;;;7.20;99.90;;;;;;5033182;28;21001;-67
2022/05/09 03:23:56;;;;;;;18.27;16.67;;;7.10;99.90;;;;;;5025420;28;20471;-66
2022/05/09 03:26:24;;;;;;;18.13;16.63;;;7.10;99.90;;;;;;5025288;28;20499;-67
2022/05/09 03:28:50;;;;;;;18.07;16.87;;;7.10;99.90;;;;;;5025083;28;20469;-67
2022/05/09 03:31:18;;;;;;;20.23;18.60;;;7.10;99.90;;;;;;5024795;28;21028;-66
2022/05/09 03:33:46;;;;;;;18.83;17.10;;;7.10;99.90;;;;;;5024291;28;20472;-67
2022/05/09 03:36:12;;;;;;;19.40;18.07;;;7.00;99.90;;;;;;5027170;28;20481;-67
2022/05/09 03:38:39;;;;;;;18.90;17.40;;;6.90;99.90;;;;;;5029719;28;20475;-66
2022/05/09 03:41:07;;;;;;;17.23;16.13;;;6.90;99.90;;;;;;5027870;28;20962;-66
2022/05/09 03:43:34;;;;;;;19.00;17.70;;;6.80;99.90;;;;;;5028033;28;20451;-67
2022/05/09 03:46:02;;;;;;;18.80;17.70;;;6.80;99.90;;;;;;5024749;28;20517;-67
2022/05/09 03:48:30;;;;;;;19.17;17.80;;;6.80;99.90;;;;;;5024299;28;20473;-66
2022/05/09 03:51:01;;;;;;;19.93;18.20;;;6.80;99.90;;;;;;5030975;28;20523;-67
2022/05/09 03:53:28;;;;;;;20.57;18.33;;;6.80;99.90;;;;;;5027478;28;21014;-66
2022/05/09 03:55:56;;;;;;;19.70;17.90;;;6.70;99.90;;;;;;5026165;28;20848;-66
2022/05/09 03:58:23;;;;;;;18.63;17.23;;;6.80;99.90;;;;;;5024438;28;20563;-67
2022/05/09 04:00:50;;;;;;;20.87;17.30;;;6.70;99.90;;;;;;5024037;28;20519;-66
2022/05/09 04:03:17;;;;;;;20.40;18.73;;;6.70;99.90;;;;;;5007457;28;21048;-67
2022/05/09 04:05:45;;;;;;;19.80;18.50;;;6.70;99.90;;;;;;5003775;28;20978;-67
2022/05/09 04:08:16;;;;;;;18.60;17.20;;;6.60;99.90;;;;;;5008230;28;20993;-67
2022/05/09 04:10:44;;;;;;;19.50;17.87;;;6.60;99.90;;;;;;5006567;28;20497;-67
2022/05/09 04:13:12;;;;;;;19.60;18.30;;;6.60;99.90;;;;;;5007055;28;21252;-67
2022/05/09 04:18:26;;;;;;;21.70;19.67;;;6.60;99.90;;;;;;5007788;28;20478;-66
2022/05/09 04:20:53;;;;;;;19.33;17.93;;;6.60;99.90;;;;;;5006950;28;20840;-67
2022/05/09 04:23:22;;;;;;;20.83;19.33;;;6.70;99.90;;;;;;5007592;28;21710;-67
2022/05/09 04:25:49;;;;;;;21.40;19.40;;;6.70;99.90;;;;;;5007289;28;20527;-68
2022/05/09 04:28:18;;;;;;;20.00;18.70;;;6.70;99.90;;;;;;5007524;28;20998;-66
2022/05/09 04:30:45;;;;;;;20.33;18.50;;;6.80;99.90;;;;;;5006678;28;21104;-67
2022/05/09 04:33:12;;;;;;;20.90;19.20;;;6.80;99.90;;;;;;5006591;28;20468;-66
2022/05/09 04:35:40;;;;;;;19.73;18.23;;;6.80;99.90;;;;;;5007141;28;20487;-67
2022/05/09 04:38:07;;;;;;;21.47;19.97;;;6.90;99.90;;;;;;5007227;28;20894;-66
2022/05/09 04:40:37;;;;;;;22.27;20.33;;;7.00;99.90;;;;;;5006651;28;20476;-66
2022/05/09 04:43:06;;;;;;;20.80;19.10;;;7.00;99.90;;;;;;5005679;28;20464;-67
2022/05/09 04:45:34;;;;;;;20.80;19.40;;;7.10;99.90;;;;;;5006561;28;20533;-67
2022/05/09 04:48:02;;;;;;;22.80;20.20;;;7.20;99.90;;;;;;5016860;28;20858;-67
2022/05/09 04:50:32;;;;;;;21.20;19.60;;;7.20;99.90;;;;;;5036011;28;20516;-66
2022/05/09 04:52:59;;;;;;;22.37;20.60;;;7.30;99.90;;;;;;5030366;28;20466;-67
2022/05/09 04:55:26;;;;;;;20.90;19.13;;;7.40;99.90;;;;;;5016677;28;20507;-67
2022/05/09 04:57:54;;;;;;;21.13;19.43;;;7.50;99.90;;;;;;5005357;28;21622;-67
2022/05/09 05:00:25;;;;;;;20.67;19.03;;;7.60;99.90;;;;;;5007012;28;20467;-67
2022/05/09 05:02:51;;;;;;;23.10;21.00;;;7.70;99.90;;;;;;5006536;28;20529;-67
2022/05/09 05:05:19;;;;;;;22.07;20.47;;;7.80;99.90;;;;;;5005943;28;20502;-66
2022/05/09 05:07:45;;;;;;;20.43;18.87;;;8.00;99.90;;;;;;5006570;28;20475;-66
2022/05/09 05:10:13;;;;;;;21.53;19.67;;;8.10;99.90;;;;;;5005982;28;20467;-67
2022/05/09 05:12:41;;;;;;;20.47;18.87;;;8.20;99.90;;;;;;5006140;28;20464;-67
2022/05/09 05:15:09;;;;;;;21.40;19.03;;;8.30;99.90;;;;;;5006070;28;20455;-66
2022/05/09 05:17:37;;;;;;;21.43;19.57;;;8.40;99.90;;;;;;5004834;28;20508;-67
2022/05/09 05:20:09;;;;;;;20.93;19.23;;;8.60;99.90;;;;;;5005789;28;20979;-66
2022/05/09 05:22:37;;;;;;;20.37;18.67;;;8.70;99.90;;;;;;5006061;28;20456;-66
2022/05/09 05:25:04;;;;;;;20.93;19.13;;;8.80;99.90;;;;;;5006720;28;21394;-68
2022/05/09 05:27:31;;;;;;;21.33;19.50;;;8.90;99.90;;;;;;5005515;28;20509;-68
2022/05/09 05:29:59;;;;;;;20.53;19.10;;;9.00;99.90;;;;;;5005363;28;21052;-66
2022/05/09 05:32:31;;;;;;;21.00;18.13;;;9.20;99.90;;;;;;5006696;28;20830;-67
2022/05/09 05:34:58;;;;;;;19.33;17.60;;;9.30;99.90;;;;;;5004973;28;21196;-66
2022/05/09 05:37:25;;;;;;;19.90;18.40;;;9.40;99.90;;;;;;5005661;28;20489;-67
2022/05/09 05:39:52;;;;;;;19.33;17.80;;;9.50;99.90;;;;;;5005271;28;21610;-67
2022/05/09 05:42:19;;;;;;;19.53;17.27;;;9.60;99.90;;;;;;5005790;28;22525;-67
2022/05/09 05:44:47;;;;;;;18.70;16.90;;;9.80;99.90;;;;;;5005732;28;20472;-68
2022/05/09 05:47:17;;;;;;;19.43;17.53;;;10.00;99.90;;;;;;5005723;28;20464;-67
2022/05/09 05:49:46;;;;;;;18.93;17.03;;;10.10;99.90;;;;;;5005626;28;20464;-67
2022/05/09 05:52:14;;;;;;;17.87;16.10;;;10.20;99.90;;;;;;5005918;28;20928;-66
2022/05/09 05:54:43;;;;;;;20.03;17.30;;;10.30;99.90;;;;;;5005923;28;20473;-66
2022/05/09 05:57:18;;;;;;;21.23;17.50;;;10.50;99.90;;;;;;5004790;28;21038;-68
2022/05/09 05:59:49;;;;;;;20.73;18.70;;;10.60;99.90;;;;;;5005345;28;20468;-66
2022/05/09 06:02:16;;;;;;;22.40;17.07;;;10.80;99.90;;;;;;5001017;28;20614;-67
2022/05/09 06:04:43;;;;;;;22.80;17.70;;;11.00;99.90;;;;;;5003788;28;20476;-66
2022/05/09 06:07:12;;;;;;;20.20;17.43;;;11.10;99.90;;;;;;5002729;28;20484;-65
2022/05/09 06:09:40;;;;;;;24.40;18.80;;;11.30;99.90;;;;;;5002894;28;23212;-66
2022/05/09 06:12:07;;;;;;;25.20;17.30;;;11.40;99.90;;;;;;5003777;28;20498;-66
2022/05/09 06:14:34;;;;;;;26.87;18.20;;;11.60;99.90;;;;;;5004136;28;20468;-67
2022/05/09 06:17:02;;;;;;;38.67;18.00;;;11.70;99.90;;;;;;5003081;28;20496;-66
2022/05/09 06:19:29;;;;;;;28.83;17.40;;;11.80;99.90;;;;;;5003631;28;20977;-67
2022/05/09 06:21:56;;;;;;;27.13;17.10;;;11.90;99.90;;;;;;5003763;28;20469;-66
2022/05/09 06:24:24;;;;;;;25.87;18.50;;;12.10;99.90;;;;;;5004014;28;20461;-66
2022/05/09 06:26:51;;;;;;;35.30;19.67;;;12.20;99.90;;;;;;5003149;28;21058;-67
2022/05/09 06:29:18;;;;;;;27.33;18.00;;;12.30;99.90;;;;;;5002194;28;20469;-66
2022/05/09 06:31:46;;;;;;;23.43;18.13;;;12.50;99.90;;;;;;5003094;28;20477;-66
2022/05/09 06:34:14;;;;;;;19.40;17.00;;;12.60;99.90;;;;;;5001495;28;20845;-66
2022/05/09 06:36:43;;;;;;;19.87;17.77;;;12.90;99.90;;;;;;5002676;28;20853;-67
2022/05/09 06:39:11;;;;;;;21.17;18.97;;;13.10;99.90;;;;;;5002812;28;20789;-67
2022/05/09 06:41:39;;;;;;;31.47;18.93;;;13.30;99.90;;;;;;4998152;28;20468;-66
2022/05/09 06:44:06;;;;;;;28.07;18.63;;;13.50;99.90;;;;;;5001374;28;20465;-67
2022/05/09 06:46:33;;;;;;;22.27;18.20;;;13.50;99.90;;;;;;5001466;28;20990;-66
2022/05/09 06:49:00;;;;;;;24.27;19.60;;;13.70;99.90;;;;;;5002590;28;20888;-66
2022/05/09 06:51:28;;;;;;;21.70;18.57;;;13.80;99.90;;;;;;5001403;28;21058;-67
2022/05/09 06:53:55;;;;;;;22.20;18.97;;;14.00;99.90;;;;;;5002589;28;20547;-68
2022/05/09 06:56:23;;;;;;;20.90;19.00;;;14.20;99.90;;;;;;5003131;28;20476;-66
2022/05/09 06:58:51;;;;;;;20.33;18.33;;;14.30;99.90;;;;;;5001764;28;20518;-67
2022/05/09 07:01:19;;;;;;;24.37;18.10;;;14.50;99.90;;;;;;5001709;28;20915;-67
2022/05/09 07:03:47;;;;;;;27.33;17.80;;;14.60;99.90;;;;;;5001666;28;20851;-66
2022/05/09 07:06:13;;;;;;;19.70;17.60;;;14.70;99.90;;;;;;5001571;28;20986;-66
2022/05/09 07:08:42;;;;;;;20.67;16.10;;;14.90;99.90;;;;;;4999664;28;21108;-66
2022/05/09 07:11:11;;;;;;;27.03;20.33;;;15.10;99.90;;;;;;5000843;28;20460;-66
2022/05/09 07:13:38;;;;;;;19.57;17.77;;;15.20;99.90;;;;;;5001229;28;20610;-67
2022/05/09 07:16:08;;;;;;;21.00;18.40;;;15.30;99.90;;;;;;5000936;28;20465;-65
2022/05/09 07:18:36;;;;;;;27.70;18.00;;;15.40;99.90;;;;;;4999806;28;20500;-67
2022/05/09 07:21:02;;;;;;;34.33;18.03;;;15.70;99.90;;;;;;5000951;28;20482;-68
2022/05/09 07:23:29;;;;;;;24.30;18.63;;;15.80;99.90;;;;;;4998838;28;20453;-66
2022/05/09 07:25:56;;;;;;;21.93;18.50;;;15.90;99.90;;;;;;4999322;28;20475;-66
2022/05/09 07:28:23;;;;;;;52.63;18.70;;;16.00;99.90;;;;;;5001454;28;20468;-67
2022/05/09 07:30:51;;;;;;;19.57;17.27;;;16.20;99.90;;;;;;5002177;28;20460;-67
2022/05/09 07:33:20;;;;;;;19.70;17.70;;;16.30;99.90;;;;;;5001207;28;20560;-65
2022/05/09 07:35:48;;;;;;;27.87;17.47;;;16.50;99.90;;;;;;4999844;28;20934;-66
2022/05/09 07:38:16;;;;;;;26.67;17.93;;;16.70;99.90;;;;;;5000235;28;20485;-67
2022/05/09 07:40:44;;;;;;;31.17;18.07;;;16.90;99.90;;;;;;5000975;28;20984;-67
2022/05/09 07:43:14;;;;;;;36.73;18.03;;;16.80;99.90;;;;;;5000345;28;20678;-66
2022/05/09 07:45:42;;;;;;;30.80;19.50;;;16.90;99.90;;;;;;5000991;28;21302;-68
2022/05/09 07:48:10;;;;;;;28.67;18.20;;;17.00;99.90;;;;;;5001486;28;20539;-66
2022/05/09 07:50:41;;;;;;;32.80;19.07;;;17.10;99.90;;;;;;5000330;28;21586;-67
2022/05/09 07:53:11;;;;;;;26.20;18.53;;;17.30;99.90;;;;;;5001431;28;20531;-68
2022/05/09 07:55:39;;;;;;;27.07;17.97;;;17.40;99.90;;;;;;5000975;28;20521;-67
2022/05/09 07:58:06;;;;;;;22.30;18.37;;;17.50;99.90;;;;;;5000846;28;21050;-67
2022/05/09 08:00:32;;;;;;;19.40;17.90;;;17.60;99.90;;;;;;5001087;28;20484;-68
2022/05/09 08:02:59;;;;;;;23.20;17.63;;;17.60;99.90;;;;;;5000918;28;20483;-67
2022/05/09 08:05:27;;;;;;;25.07;19.10;;;17.80;99.90;;;;;;5001216;28;20489;-67
2022/05/09 08:07:55;;;;;;;22.57;18.07;;;18.10;99.90;;;;;;5000693;28;20463;-68
2022/05/09 08:10:22;;;;;;;22.63;18.03;;;18.40;99.90;;;;;;5000093;28;20469;-67
2022/05/09 08:12:49;;;;;;;20.73;18.47;;;18.70;99.90;;;;;;5003204;28;20483;-67
2022/05/09 08:15:19;;;;;;;23.50;17.27;;;18.80;99.90;;;;;;5001671;28;20473;-66
2022/05/09 08:17:49;;;;;;;20.77;17.73;;;18.80;99.90;;;;;;5001324;28;20495;-66
2022/05/09 08:20:16;;;;;;;20.23;18.23;;;18.70;99.90;;;;;;5000727;28;20856;-67
2022/05/09 08:22:44;;;;;;;20.63;17.60;;;18.80;99.90;;;;;;5001649;28;20580;-67
2022/05/09 08:25:14;;;;;;;21.20;17.60;;;19.10;99.90;;;;;;5001032;28;20609;-67
2022/05/09 08:27:41;;;;;;;19.83;16.53;;;19.70;99.90;;;;;;5001847;28;20577;-68
2022/05/09 08:30:10;;;;;;;21.37;17.13;;;20.60;99.90;;;;;;5000793;28;20955;-67
2022/05/09 08:32:38;;;;;;;18.20;16.40;;;21.50;99.90;;;;;;5000834;28;20463;-68
2022/05/09 08:35:08;;;;;;;22.87;17.97;;;21.90;99.90;;;;;;5002305;28;20824;-67
2022/05/09 08:37:35;;;;;;;22.10;16.73;;;23.10;99.90;;;;;;5013412;28;20577;-67
2022/05/09 08:40:02;;;;;;;17.57;16.07;;;23.80;99.00;;;;;;5024677;28;20472;-68
2022/05/09 08:42:40;;;;;;;18.80;17.20;;;23.80;95.50;;;;;;5009764;28;20994;-68
2022/05/09 08:45:20;;;;;;;17.30;15.70;;;24.30;95.10;;;;;;5001683;28;20831;-68
2022/05/09 08:48:10;;;;;;;26.80;17.97;;;25.10;94.20;;;;;;5000534;28;21137;-68
2022/05/09 08:50:50;;;;;;;20.23;16.20;;;25.60;92.50;;;;;;5000851;28;20483;-68
2022/05/09 08:53:23;;;;;;;31.37;17.13;;;25.90;90.20;;;;;;5004288;28;21280;-68
2022/05/09 08:55:52;;;;;;;18.93;17.13;;;25.90;88.40;;;;;;5005458;28;20559;-67
2022/05/09 08:58:37;;;;;;;17.97;16.50;;;26.60;86.70;;;;;;5003962;28;20539;-69
2022/05/09 09:01:10;;;;;;;19.30;17.50;;;27.20;83.20;;;;;;5004520;28;20460;-68
2022/05/09 09:03:39;;;;;;;18.57;17.13;;;26.70;79.70;;;;;;5004365;28;20486;-67
2022/05/09 09:06:37;;;;;;;18.60;17.10;;;26.40;82.00;;;;;;5004398;28;20865;-68
2022/05/09 09:09:18;;;;;;;18.03;16.43;;;26.30;81.90;;;;;;5003917;28;20549;-68
2022/05/09 09:11:54;;;;;;;26.27;17.37;;;26.60;79.00;;;;;;5003790;28;20853;-67
2022/05/09 09:14:31;;;;;;;30.30;18.27;;;26.10;80.50;;;;;;5005101;28;20742;-68
2022/05/09 09:17:10;;;;;;;19.83;16.77;;;26.40;78.40;;;;;;5004492;28;22610;-68
2022/05/09 09:19:58;;;;;;;22.90;17.13;;;26.50;80.80;;;;;;5003904;28;20837;-69
2022/05/09 09:22:38;;;;;;;18.83;17.20;;;27.30;78.90;;;;;;5003513;28;20471;-68
2022/05/09 09:25:21;;;;;;;19.50;17.90;;;26.80;76.10;;;;;;5005274;28;20845;-68
2022/05/09 09:27:53;;;;;;;18.63;17.03;;;26.80;75.90;;;;;;5002731;28;20480;-68
2022/05/09 09:30:23;;;;;;;18.53;16.73;;;27.10;75.30;;;;;;5004689;28;20476;-69
2022/05/09 09:32:56;;;;;;;19.87;18.47;;;27.60;76.20;;;;;;5003334;28;20468;-68
2022/05/09 09:35:42;;;;;;;19.03;17.53;;;26.80;74.40;;;;;;5003975;28;20677;-68
2022/05/09 09:38:18;;;;;;;18.87;17.20;;;26.40;77.50;;;;;;5003382;28;20556;-68
2022/05/09 09:40:45;;;;;;;22.43;17.33;;;27.10;76.10;;;;;;5003332;28;20471;-68
2022/05/09 09:43:12;;;;;;;18.73;17.47;;;27.50;74.40;;;;;;5003034;28;20460;-68
2022/05/09 09:45:44;;;;;;;18.87;17.23;;;27.70;72.60;;;;;;5003733;28;20986;-68
2022/05/09 09:48:14;;;;;;;18.80;16.97;;;27.90;72.40;;;;;;5004514;28;20739;-68
2022/05/09 09:50:56;;;;;;;18.33;17.23;;;28.40;73.40;;;;;;5003934;28;21147;-68
2022/05/09 09:53:35;;;;;;;20.53;17.87;;;28.70;70.20;;;;;;5003647;28;20492;-68
2022/05/09 09:56:06;;;;;;;20.23;18.63;;;28.80;68.70;;;;;;5020883;28;20460;-68
2022/05/09 09:58:33;;;;;;;21.33;18.70;;;29.30;68.40;;;;;;5032852;28;20476;-68
2022/05/09 10:01:09;;;;;;;19.27;18.00;;;30.20;66.40;;;;;;5022826;28;20464;-68
2022/05/09 10:03:39;;;;;;;19.93;18.53;;;30.90;64.30;;;;;;5002441;28;20472;-68
2022/05/09 10:06:15;;;;;;;18.77;17.50;;;30.90;60.70;;;;;;5002901;28;21031;-68
2022/05/09 10:08:43;;;;;;;19.50;18.07;;;30.50;61.10;;;;;;5003191;28;20491;-68
2022/05/09 10:11:13;;;;;;;18.30;17.20;;;30.80;60.40;;;;;;5003011;28;20495;-68
2022/05/09 10:13:45;;;;;;;19.97;18.13;;;30.80;59.20;;;;;;5004116;28;20900;-67
2022/05/09 10:16:22;;;;;;;20.00;18.30;;;30.50;58.40;;;;;;5004855;28;20970;-68
2022/05/09 10:18:50;;;;;;;19.90;17.90;;;30.00;59.90;;;;;;5003546;28;20543;-69
2022/05/09 10:26:55;;;;;;;19.27;17.47;;;30.50;58.80;;;;;;5002799;28;20472;-68
2022/05/09 10:29:24;;;;;;;19.70;17.70;;;30.80;57.50;;;;;;5003403;28;20477;-69
2022/05/09 10:31:55;;;;;;;19.20;17.47;;;30.80;57.80;;;;;;5003132;28;20494;-68
2022/05/09 10:34:26;;;;;;;18.27;16.77;;;30.90;56.20;;;;;;5002998;28;20472;-70
2022/05/09 10:36:58;;;;;;;19.20;17.73;;;31.00;56.90;;;;;;5002275;28;22471;-68
2022/05/09 10:39:28;;;;;;;17.43;16.13;;;31.50;56.50;;;;;;5001275;28;20955;-69
2022/05/09 10:41:59;;;;;;;17.70;16.40;;;31.50;55.90;;;;;;5002115;28;20530;-68
2022/05/09 10:44:34;;;;;;;18.17;16.67;;;30.50;56.50;;;;;;5000587;28;20767;-69
2022/05/09 10:47:08;;;;;;;18.10;16.70;;;31.20;54.80;;;;;;4999379;28;20480;-68
2022/05/09 10:49:42;;;;;;;19.27;17.80;;;31.70;56.30;;;;;;5000642;28;20492;-70
2022/05/09 10:52:19;;;;;;;20.93;19.50;;;32.40;54.10;;;;;;5001703;28;20468;-69
2022/05/09 10:54:50;;;;;;;19.80;18.30;;;33.10;52.10;;;;;;4999469;28;20633;-69
2022/05/09 10:57:25;;;;;;;19.07;17.57;;;32.30;51.80;;;;;;5003930;28;20453;-69
2022/05/09 10:59:54;;;;;;;17.00;16.10;;;33.00;51.60;;;;;;5001476;28;20467;-69
2022/05/09 11:02:26;;;;;;;18.10;16.33;;;32.80;51.90;;;;;;5001908;28;21472;-69
2022/05/09 11:04:53;;;;;;;17.57;16.30;;;33.10;51.40;;;;;;5002394;28;20516;-69
2022/05/09 11:10:23;;;;;;;19.20;17.53;;;33.20;48.80;;;;;;5003265;28;20990;-68
2022/05/09 11:13:17;;;;;;;18.67;17.17;;;32.40;50.30;;;;;;5002391;28;21022;-69
2022/05/09 11:15:52;;;;;;;18.90;17.60;;;32.80;50.80;;;;;;5001449;28;20461;-69
2022/05/09 11:18:38;;;;;;;19.27;17.47;;;33.00;49.10;;;;;;5002704;28;20469;-68
2022/05/09 11:21:21;;;;;;;19.10;17.53;;;33.50;49.70;;;;;;5002109;28;20475;-69
2022/05/09 11:24:05;;;;;;;18.30;16.80;;;33.10;48.40;;;;;;5002240;28;20463;-69
2022/05/09 11:26:42;;;;;;;18.67;16.83;;;33.20;48.10;;;;;;5001799;28;21241;-69
2022/05/09 11:29:24;;;;;;;17.90;16.00;;;34.30;47.10;;;;;;5001375;28;20943;-69
2022/05/09 11:32:08;;;;;;;19.23;17.57;;;35.60;46.00;;;;;;5001665;28;20582;-69
2022/05/09 11:34:51;;;;;;;18.77;17.20;;;35.20;43.60;;;;;;5000518;28;20898;-69
2022/05/09 11:37:27;;;;;;;18.00;16.80;;;33.90;44.10;;;;;;5001746;28;20468;-69
2022/05/09 11:40:05;;;;;;;17.20;16.03;;;33.50;44.30;;;;;;5002546;28;20477;-69
2022/05/09 11:45:47;;;;;;;17.53;16.13;;;34.80;43.70;;;;;;4994601;28;20979;-69
2022/05/09 11:48:27;;;;;;;16.80;15.80;;;34.50;42.30;;;;;;4999748;28;20646;-69
2022/05/09 11:51:02;;;;;;;17.57;15.77;;;34.80;41.40;;;;;;4999557;28;20468;-69
2022/05/09 11:53:34;;;;;;;15.67;14.80;;;34.40;41.30;;;;;;5000339;28;21076;-69
2022/05/09 11:56:05;;;;;;;17.27;15.70;;;34.20;42.50;;;;;;5000509;28;20457;-69
2022/05/09 11:58:34;;;;;;;17.20;16.10;;;33.90;41.80;;;;;;5000081;28;20576;-70
2022/05/09 12:01:01;;;;;;;17.00;15.90;;;34.40;43.00;;;;;;5000281;28;20527;-68
2022/05/09 12:04:02;;;;;;;16.50;15.50;;;35.30;41.00;;;;;;5000598;28;20554;-70
2022/05/09 12:06:42;;;;;;;16.80;15.70;;;36.00;39.30;;;;;;5000124;28;20473;-68
2022/05/09 12:09:11;;;;;;;16.87;15.67;;;36.20;39.70;;;;;;5001034;28;20622;-69
2022/05/09 12:11:51;;;;;;;17.93;16.40;;;36.50;39.00;;;;;;5000493;28;20591;-69
2022/05/09 12:14:52;;;;;;;16.30;15.20;;;36.50;38.90;;;;;;5000824;28;20574;-69
2022/05/09 12:17:38;;;;;;;16.70;15.80;;;36.90;38.60;;;;;;5000325;28;20460;-69
2022/05/09 12:20:10;;;;;;;16.40;15.60;;;37.40;36.80;;;;;;5001957;28;20855;-69
2022/05/09 12:22:49;;;;;;;16.27;15.37;;;36.80;36.80;;;;;;5000231;28;20465;-69
2022/05/09 12:26:00;;;;;;;17.00;15.13;;;37.00;35.80;;;;;;4998449;28;20467;-69
2022/05/09 12:28:30;;;;;;;16.57;15.67;;;36.80;35.20;;;;;;5012129;28;20468;-69
2022/05/09 12:30:59;;;;;;;15.90;15.13;;;36.00;35.90;;;;;;5026729;28;20467;-69
2022/05/09 12:33:35;;;;;;;16.60;15.57;;;35.20;37.60;;;;;;5026885;28;20468;-69
2022/05/09 12:36:06;;;;;;;18.27;17.27;;;34.90;37.10;;;;;;5004130;28;20549;-69
2022/05/09 12:38:38;;;;;;;16.80;15.90;;;34.90;37.40;;;;;;5001662;28;20471;-69
2022/05/09 12:41:09;;;;;;;17.43;16.43;;;34.00;37.70;;;;;;5002154;28;20459;-69
2022/05/09 12:43:39;;;;;;;17.83;17.00;;;33.20;38.80;;;;;;5003299;28;20468;-69
2022/05/09 12:46:10;;;;;;;17.93;16.80;;;33.30;38.80;;;;;;5003564;28;20472;-69
2022/05/09 12:48:39;;;;;;;16.70;15.90;;;33.70;38.70;;;;;;5003193;28;20465;-69
2022/05/09 12:51:08;;;;;;;17.40;16.40;;;33.20;39.70;;;;;;5003600;28;21095;-69
2022/05/09 12:53:38;;;;;;;17.27;16.17;;;33.90;39.60;;;;;;5025569;28;20463;-69
2022/05/09 12:56:12;;;;;;;17.90;16.60;;;33.20;39.00;;;;;;5033888;28;20473;-69
2022/05/09 12:58:41;;;;;;;18.07;17.07;;;33.60;39.20;;;;;;5026491;28;20476;-69
2022/05/09 13:01:12;;;;;;;17.53;16.53;;;33.90;39.00;;;;;;5003161;28;21744;-69
2022/05/09 13:03:44;;;;;;;18.07;17.00;;;33.80;39.50;;;;;;5003839;28;20516;-69
2022/05/09 13:06:14;;;;;;;17.00;16.10;;;33.40;39.60;;;;;;5003436;28;20488;-70